ADDS METAR Data INFO
IDs: Format: Raw Decoded Include TAF

Data at: 2229 UTC 22 Aug 2017

KUVA 222215Z AUTO 09009KT 10SM CLR 36/17 A2998 RMK AO2 T03610173
KUVA 222155Z AUTO 11011G15KT 10SM CLR 36/17 A2999 RMK AO2 T03570170
KUVA 222135Z AUTO 08007KT 10SM CLR 35/17 A3000 RMK AO2 T03540170
KUVA 222115Z AUTO 10007KT 10SM SCT070 35/18 A3000 RMK AO2 T03540175
KUVA 222055Z AUTO 13007KT 10SM SCT070 36/18 A3001 RMK AO2 T03620182
KUVA 222035Z AUTO 09003G08KT 10SM CLR 35/17 A3002 RMK AO2 T03530174
KUVA 222015Z AUTO 00000KT 10SM SCT065 36/18 A3003 RMK AO2 T03560180
KUVA 221955Z AUTO 12010G14KT 10SM CLR 35/18 A3004 RMK AO2 T03540181
KUVA 221935Z AUTO 13004G15KT 10SM SCT060 35/18 A3005 RMK AO2 T03520184
KUVA 221915Z AUTO 13008KT 10SM CLR 35/19 A3005 RMK AO2 T03450185
KUVA 221855Z AUTO 11007KT 10SM CLR 34/18 A3006 RMK AO2 T03430178
KUVA 221835Z AUTO 11003KT 10SM SCT055 33/19 A3006 RMK AO2 T03330190
KUVA 221815Z AUTO 12005KT 10SM SCT055 34/19 A3007 RMK AO2 T03380187
KUVA 221755Z AUTO 00000KT 10SM CLR 33/19 A3008 RMK AO2 6//// T03250187
KUVA 221735Z AUTO 00000KT 10SM CLR 32/20 A3009 RMK AO2 T03230197
KUVA 221715Z AUTO 00000KT 10SM CLR 31/20 A3009 RMK AO2 T03130197
KUVA 221655Z AUTO 00000KT 10SM CLR 31/20 A3009 RMK AO2 T03080195
KUVA 221635Z AUTO 00000KT 10SM CLR 31/20 A3009 RMK AO2 T03060201
KUVA 221615Z AUTO 00000KT 10SM SCT030 30/20 A3009 RMK AO2 T02970204
KUVA 221555Z AUTO 00000KT 10SM CLR 29/21 A3009 RMK AO2 T02860207
KUVA 221535Z AUTO 00000KT 10SM CLR 27/21 A3009 RMK AO2 T02710208
KUVA 221515Z AUTO 00000KT 10SM CLR 27/21 A3009 RMK AO2 T02690208
KUVA 221455Z AUTO 00000KT 10SM SCT018 27/21 A3010 RMK AO2 6//// T02670212
KUVA 221435Z AUTO 00000KT 10SM BKN017 26/22 A3009 RMK AO2 T02620220 PWINO
KUVA 221415Z AUTO 00000KT 10SM SCT013 BKN018 26/22 A3009 RMK AO2 T02620221
KUVA 221355Z AUTO 00000KT 10SM BKN015 25/22 A3009 RMK AO2 T02540220
KUVA 221335Z AUTO 00000KT 10SM BKN013 25/22 A3008 RMK AO2 T02470216
KUVA 221315Z AUTO 00000KT 10SM BKN013 24/22 A3008 RMK AO2 T02390215
KUVA 221255Z AUTO 00000KT 10SM BKN015 23/21 A3008 RMK AO2 T02300210
KUVA 221235Z AUTO 00000KT 10SM BKN013 23/21 A3007 RMK AO2 T02250210
KUVA 221215Z AUTO 00000KT 10SM CLR 22/21 A3006 RMK AO2 T02210205
KUVA 221155Z AUTO 00000KT 10SM SCT018 23/21 A3006 RMK AO2 T02250206 10280 20225
KUVA 221135Z AUTO 00000KT 10SM SCT016 23/21 A3006 RMK AO2 T02270205
KUVA 221115Z AUTO 00000KT 10SM BKN016 23/21 A3006 RMK AO2 T02280205
KUVA 221055Z AUTO 00000KT 10SM BKN016 23/21 A3006 RMK AO2 T02300205
KUVA 221035Z AUTO 00000KT 10SM BKN016 23/21 A3006 RMK AO2 T02340205
KUVA 221015Z AUTO 00000KT 10SM OVC016 23/20 A3006 RMK AO2 T02320203
KUVA 220955Z AUTO 00000KT 10SM BKN016 23/20 A3007 RMK AO2 T02290202
KUVA 220935Z AUTO 00000KT 10SM SCT016 23/20 A3007 RMK AO2 T02270200
KUVA 220915Z AUTO 00000KT 10SM CLR 23/20 A3007 RMK AO2 T02310200
KUVA 220855Z AUTO 00000KT 10SM CLR 24/20 A3007 RMK AO2 T02400201
KUVA 220835Z AUTO 00000KT 10SM CLR 25/21 A3007 RMK AO2 T02450205
KUVA 220815Z AUTO 00000KT 10SM CLR 25/21 A3008 RMK AO2 T02500205
KUVA 220755Z AUTO 00000KT 10SM CLR 25/21 A3008 RMK AO2 T02540205
KUVA 220735Z AUTO 00000KT 10SM CLR 26/21 A3008 RMK AO2 T02590205
KUVA 220715Z AUTO 00000KT 10SM CLR 26/21 A3008 RMK AO2 T02630205
KUVA 220655Z AUTO 13006KT 10SM CLR 27/21 A3009 RMK AO2 T02670205
KUVA 220635Z AUTO 12007KT 10SM CLR 27/20 A3009 RMK AO2 T02720203
KUVA 220615Z AUTO 13009KT 10SM CLR 28/20 A3009 RMK AO2 T02760201
KUVA 220555Z AUTO 13010KT 10SM CLR 28/20 A3009 RMK AO2 T02800201 10335 20279 403550235
KUVA 220535Z AUTO 12009KT 10SM CLR 28/20 A3010 RMK AO2 T02800201
KUVA 220515Z AUTO 11008KT 10SM CLR 29/20 A3009 RMK AO2 T02850200
KUVA 220455Z AUTO 13010KT 10SM SCT075 29/20 A3009 RMK AO2 T02900199
KUVA 220435Z AUTO 13009G15KT 10SM BKN075 BKN085 BKN100 30/20 A3008 RMK AO2 T02950197
KUVA 220415Z AUTO 11009G15KT 10SM BKN070 BKN080 OVC100 30/20 A3008 RMK AO2 LTG DSNT W T02960200
KUVA 220355Z AUTO 10006KT 10SM SCT070 BKN090 29/20 A3007 RMK AO2 T02900201
KUVA 220335Z AUTO 00000KT 10SM SCT070 SCT090 29/20 A3006 RMK AO2 T02900200
KUVA 220315Z AUTO 00000KT 10SM BKN085 29/20 A3005 RMK AO2 T02900198
KUVA 220255Z AUTO 00000KT 10SM SCT085 29/20 A3004 RMK AO2 T02870197
KUVA 220235Z AUTO 00000KT 10SM CLR 30/20 A3003 RMK AO2 T02950196
KUVA 220215Z AUTO 09003KT 10SM CLR 30/19 A3003 RMK AO2 T02980194
KUVA 220155Z AUTO 09005KT 10SM CLR 31/19 A3002 RMK AO2 T03050191
KUVA 220135Z AUTO 09007KT 10SM CLR 31/19 A3001 RMK AO2 T03110188
KUVA 220115Z AUTO 09005KT 10SM CLR 32/19 A3000 RMK AO2 T03190187
KUVA 220055Z AUTO 08006KT 10SM CLR 33/19 A2999 RMK AO2 T03250187
KUVA 220035Z AUTO 09007KT 10SM CLR 33/19 A2998 RMK AO2 T03300185
KUVA 220015Z AUTO 10006KT 10SM CLR 33/18 A2998 RMK AO2 T03300183
KUVA 212355Z AUTO 09007KT 10SM SCT065 34/19 A2999 RMK AO2 T03350185 10355 20306
KUVA 212335Z AUTO 10010KT 10SM SCT065 34/18 A2999 RMK AO2 T03440181
KUVA 212315Z AUTO 00000KT 10SM SCT065 34/18 A3000 RMK AO2 T03420183
KUVA 212255Z AUTO 07006KT 10SM SCT065 SCT080 34/18 A3001 RMK AO2 T03420176
KUVA 212235Z AUTO 09006KT 10SM OVC065 34/18 A3001 RMK AO2 T03430180
KUVA 212215Z AUTO 11007KT 080V140 10SM OVC065 35/18 A3002 RMK AO2 T03500177
KUVA 212155Z AUTO 10005KT 10SM BKN075 BKN080 34/18 A3002 RMK AO2 T03440178
KUVA 212135Z AUTO 08005G09KT 10SM SCT060 BKN070 34/18 A3003 RMK AO2 T03410182
KUVA 212115Z AUTO 11009G24KT 10SM BKN060 OVC070 35/18 A3003 RMK AO2 T03480184
KUVA 212055Z AUTO 13007KT 10SM BKN060 35/19 A3004 RMK AO2 T03470186
KUVA 212035Z AUTO 00000KT 10SM BKN060 BKN070 33/19 A3005 RMK AO2 T03310189
KUVA 212015Z AUTO 11008KT 080V140 10SM BKN050 33/19 A3005 RMK AO2 T03270188
KUVA 211955Z AUTO 11005KT 10SM BKN050 33/18 A3006 RMK AO2 T03280184
KUVA 211935Z AUTO 12007KT 090V180 10SM SCT050 SCT055 33/20 A3006 RMK AO2 T03310195
KUVA 211915Z AUTO 00000KT 10SM SCT049 SCT060 32/19 A3007 RMK AO2 T03190194
KUVA 211855Z AUTO 15009KT 10SM CLR 32/19 A3007 RMK AO2 T03220193
KUVA 211835Z AUTO 15007KT 10SM SCT050 SCT060 31/20 A3007 RMK AO2 T03140196
KUVA 211815Z AUTO 13003KT 10SM CLR 31/19 A3008 RMK AO2 T03120192
KUVA 211755Z AUTO 00000KT 10SM SCT044 SCT050 31/20 A3008 RMK AO2 T03050195 10316 20235
KUVA 211735Z AUTO 13006KT 10SM SCT043 SCT050 SCT060 31/20 A3008 RMK AO2 T03110198
KUVA 211715Z AUTO 13007KT 110V170 10SM SCT041 SCT050 31/20 A3009 RMK AO2 T03130203
KUVA 211655Z AUTO 15006KT 10SM SCT040 31/20 A3010 RMK AO2 T03050202
KUVA 211635Z AUTO 16007KT 10SM SCT036 SCT042 SCT050 30/21 A3010 RMK AO2 T02980208
KUVA 211615Z AUTO 14004KT 10SM BKN034 BKN044 30/21 A3010 RMK AO2 T02950209
KUVA 211555Z AUTO 00000KT 10SM BKN030 BKN036 BKN044 30/21 A3010 RMK AO2 T02970213
KUVA 211535Z AUTO 19006KT 10SM SCT026 SCT031 29/21 A3009 RMK AO2 T02860213
KUVA 211515Z AUTO 15006KT 10SM BKN025 BKN030 29/22 A3009 RMK AO2 T02900215
KUVA 211455Z AUTO 00000KT 10SM BKN021 BKN028 BKN034 28/22 A3010 RMK AO2 T02760217
KUVA 211435Z AUTO 14006KT 10SM BKN017 BKN026 27/22 A3010 RMK AO2 T02710220
KUVA 211415Z AUTO 17006KT 10SM SCT015 27/22 A3009 RMK AO2 T02650222
KUVA 211355Z AUTO 00000KT 10SM SCT013 26/23 A3008 RMK AO2 T02620225
KUVA 211335Z AUTO 00000KT 10SM CLR 26/23 A3008 RMK AO2 T02560225
KUVA 211315Z AUTO 00000KT 10SM CLR 25/23 A3008 RMK AO2 T02470225
KUVA 211255Z AUTO 00000KT 10SM CLR 24/22 A3008 RMK AO2 T02400223
KUVA 211235Z AUTO 00000KT 10SM CLR 24/22 A3008 RMK AO2 T02360221
KUVA 211215Z AUTO 00000KT 10SM SCT014 24/22 A3007 RMK AO2 T02360220
KUVA 211155Z AUTO 00000KT 10SM SCT016 SCT021 24/22 A3008 RMK AO2 T02370220 10277 20235
KUVA 211135Z AUTO 00000KT 10SM BKN016 BKN021 24/22 A3008 RMK AO2 T02400220
KUVA 211115Z AUTO 00000KT 10SM SCT014 SCT019 24/22 A3008 RMK AO2 T02380220
KUVA 211055Z AUTO 00000KT 10SM BKN019 24/22 A3008 RMK AO2 LTG DSNT NW T02420220
KUVA 211035Z AUTO 00000KT 10SM BKN017 25/22 A3008 RMK AO2 T02450221